createdAt,value
2022-11-25T00:01:29.848Z,93.28
2022-11-25T00:03:58.076Z,93.33
2022-11-25T00:06:44.225Z,92.98
2022-11-25T00:09:13.188Z,93.10
2022-11-25T00:11:42.575Z,92.91
2022-11-25T00:14:14.976Z,92.79
2022-11-25T00:16:46.710Z,92.88
2022-11-25T00:19:15.751Z,92.95
2022-11-25T00:21:42.758Z,92.52
2022-11-25T00:24:10.813Z,92.41
2022-11-25T00:26:37.678Z,92.01
2022-11-25T00:29:06.348Z,91.89
2022-11-25T00:31:36.237Z,91.82
2022-11-25T00:34:03.866Z,91.89
2022-11-25T00:36:33.382Z,91.40
2022-11-25T00:39:03.790Z,91.71
2022-11-25T00:41:49.213Z,91.60
2022-11-25T00:44:37.477Z,91.63
2022-11-25T00:47:13.175Z,91.63
2022-11-25T00:49:42.172Z,92.19
2022-11-25T00:52:12.666Z,91.88
2022-11-25T00:54:39.418Z,92.20
2022-11-25T00:57:06.447Z,92.08
2022-11-25T00:59:33.130Z,91.92
2022-11-25T01:02:00.354Z,92.03
2022-11-25T01:04:27.251Z,91.65
2022-11-25T01:06:54.466Z,91.71
2022-11-25T01:09:21.276Z,91.78
2022-11-25T01:11:51.491Z,91.43
2022-11-25T01:14:18.367Z,92.84
2022-11-25T01:16:45.130Z,92.21
2022-11-25T01:19:12.666Z,91.86
2022-11-25T01:21:39.518Z,91.92
2022-11-25T01:24:06.762Z,91.62
2022-11-25T01:26:35.178Z,91.48
2022-11-25T01:29:04.246Z,91.36
2022-11-25T01:31:34.926Z,91.41
2022-11-25T01:34:05.801Z,91.39
2022-11-25T01:36:32.873Z,91.38
2022-11-25T01:39:00.919Z,91.22
2022-11-25T01:41:31.775Z,91.26
2022-11-25T01:44:18.242Z,90.80
2022-11-25T01:47:07.307Z,90.95
2022-11-25T01:50:02.733Z,90.87
2022-11-25T01:52:35.216Z,90.36
2022-11-25T01:55:22.166Z,90.08
2022-11-25T01:57:52.542Z,89.92
2022-11-25T02:00:19.896Z,89.92
2022-11-25T02:02:49.719Z,89.50
2022-11-25T02:05:20.862Z,89.54
2022-11-25T02:07:49.761Z,89.40
2022-11-25T02:10:21.553Z,89.23
2022-11-25T02:12:48.965Z,89.49
2022-11-25T02:15:17.128Z,89.22
2022-11-25T02:17:45.119Z,89.29
2022-11-25T02:20:18.059Z,89.24
2022-11-25T02:23:25.717Z,89.23
2022-11-25T02:25:53.365Z,89.19
2022-11-25T02:28:26.458Z,89.05
2022-11-25T02:30:53.461Z,88.85
2022-11-25T02:33:21.037Z,88.61
2022-11-25T02:35:47.673Z,88.87
2022-11-25T02:38:24.097Z,88.68
2022-11-25T02:41:01.199Z,88.75
2022-11-25T02:43:29.645Z,88.76
2022-11-25T02:45:59.131Z,88.55
2022-11-25T02:48:52.901Z,88.85
2022-11-25T02:51:18.511Z,88.86
2022-11-25T02:53:45.865Z,88.91
2022-11-25T02:56:14.714Z,88.83
2022-11-25T02:58:42.453Z,88.72
2022-11-25T03:01:10.009Z,88.66
2022-11-25T03:03:37.943Z,88.89
2022-11-25T03:06:07.355Z,88.94
2022-11-25T03:08:34.500Z,89.02
2022-11-25T03:11:01.737Z,88.77
2022-11-25T03:13:28.723Z,88.66
2022-11-25T03:15:55.708Z,88.67
2022-11-25T03:18:22.681Z,88.71
2022-11-25T03:20:53.911Z,88.34
2022-11-25T03:23:20.936Z,88.62
2022-11-25T03:25:47.788Z,88.71
2022-11-25T03:28:14.683Z,88.74
2022-11-25T03:30:41.586Z,88.78
2022-11-25T03:33:08.309Z,88.64
2022-11-25T03:35:35.295Z,88.87
2022-11-25T03:38:01.974Z,88.82
2022-11-25T03:40:28.690Z,89.03
2022-11-25T03:42:55.499Z,89.01
2022-11-25T03:45:22.223Z,89.07
2022-11-25T03:47:49.007Z,89.20
2022-11-25T03:50:16.607Z,89.15
2022-11-25T03:52:43.304Z,89.48
2022-11-25T03:55:13.124Z,89.56
2022-11-25T03:57:40.448Z,89.99
2022-11-25T04:00:07.984Z,90.04
2022-11-25T04:02:34.732Z,89.96
2022-11-25T04:05:03.476Z,89.95
2022-11-25T04:07:30.293Z,90.16
2022-11-25T04:09:57.070Z,90.07
2022-11-25T04:12:42.314Z,90.00
2022-11-25T04:15:09.331Z,89.95
2022-11-25T04:17:36.093Z,90.04
2022-11-25T04:20:03.450Z,89.76
2022-11-25T04:22:30.156Z,89.48
2022-11-25T04:24:56.932Z,89.29
2022-11-25T04:27:23.782Z,89.11
2022-11-25T04:29:50.493Z,89.08
2022-11-25T04:32:17.319Z,89.02
2022-11-25T04:34:44.172Z,89.17
2022-11-25T04:37:10.931Z,89.53
2022-11-25T04:39:37.753Z,89.79
2022-11-25T04:42:23.391Z,90.06
2022-11-25T04:45:14.179Z,90.29
2022-11-25T04:47:37.115Z,90.60
2022-11-25T04:50:05.336Z,90.83
2022-11-25T04:52:32.086Z,91.07
2022-11-25T04:54:58.847Z,91.30
2022-11-25T04:57:25.787Z,91.34
2022-11-25T04:59:52.566Z,91.43
2022-11-25T05:02:21.925Z,91.61
2022-11-25T05:04:50.525Z,91.69
2022-11-25T05:07:19.896Z,91.72
2022-11-25T05:09:47.012Z,91.87
2022-11-25T05:12:16.561Z,91.82
2022-11-25T05:14:43.310Z,92.05
2022-11-25T05:17:15.701Z,91.88
2022-11-25T05:19:42.924Z,92.20
2022-11-25T05:22:23.046Z,92.10
2022-11-25T05:24:49.811Z,92.56
2022-11-25T05:27:17.079Z,92.13
2022-11-25T05:29:44.229Z,92.11
2022-11-25T05:32:11.472Z,91.98
2022-11-25T05:34:39.177Z,91.68
2022-11-25T05:37:07.416Z,91.77
2022-11-25T05:39:34.148Z,91.79
2022-11-25T05:42:01.231Z,91.66
2022-11-25T05:44:28.172Z,91.48
2022-11-25T05:46:54.916Z,91.49
2022-11-25T05:49:22.068Z,91.82
2022-11-25T05:51:49.146Z,91.46
2022-11-25T05:54:15.919Z,91.42
2022-11-25T05:56:42.672Z,91.38
2022-11-25T05:59:09.745Z,91.49
2022-11-25T06:01:36.481Z,91.53
2022-11-25T06:04:04.935Z,91.25
2022-11-25T06:06:32.387Z,91.44
2022-11-25T06:08:59.772Z,91.42
2022-11-25T06:11:26.582Z,91.69
2022-11-25T06:13:53.479Z,91.63
2022-11-25T06:16:22.917Z,91.43
2022-11-25T06:18:49.872Z,91.62
2022-11-25T06:21:17.149Z,91.61
2022-11-25T06:23:45.671Z,91.74
2022-11-25T06:26:22.080Z,91.73
2022-11-25T06:28:50.568Z,92.07
2022-11-25T06:31:20.818Z,91.93
2022-11-25T06:33:48.292Z,92.94
2022-11-25T06:36:18.266Z,92.67
2022-11-25T06:38:47.119Z,92.84
2022-11-25T06:41:14.128Z,92.73
2022-11-25T06:43:41.496Z,92.76
2022-11-25T06:46:14.044Z,92.67
2022-11-25T06:48:41.182Z,93.30
2022-11-25T06:51:11.562Z,92.73
2022-11-25T06:53:39.638Z,91.37
2022-11-25T06:56:18.679Z,91.01
2022-11-25T06:58:47.186Z,90.97
2022-11-25T07:01:25.860Z,90.16
2022-11-25T07:03:56.668Z,90.52
2022-11-25T07:06:23.687Z,90.41
2022-11-25T07:08:51.380Z,90.63
2022-11-25T07:11:25.854Z,90.66
2022-11-25T07:13:55.543Z,90.66
2022-11-25T07:16:22.986Z,90.66
2022-11-25T07:18:49.940Z,91.08
2022-11-25T07:21:20.194Z,91.12
2022-11-25T07:23:47.146Z,92.16
2022-11-25T07:26:26.034Z,91.96
2022-11-25T07:28:55.085Z,91.99
2022-11-25T07:31:31.466Z,92.12
2022-11-25T07:34:23.584Z,92.04
2022-11-25T07:36:51.102Z,92.63
2022-11-25T07:39:22.844Z,92.48
2022-11-25T07:41:51.128Z,92.98
2022-11-25T07:44:18.093Z,93.40
2022-11-25T07:46:47.700Z,93.79
2022-11-25T07:49:20.917Z,94.00
2022-11-25T07:51:53.885Z,94.11
2022-11-25T07:54:21.845Z,94.55
2022-11-25T07:56:49.885Z,94.49
2022-11-25T07:59:22.080Z,94.64
2022-11-25T08:01:54.406Z,94.64
2022-11-25T08:04:21.814Z,94.75
2022-11-25T08:06:50.965Z,94.73
2022-11-25T08:09:21.103Z,94.62
2022-11-25T08:11:48.737Z,94.82
2022-11-25T08:14:16.126Z,94.83
2022-11-25T08:16:43.252Z,94.83
2022-11-25T08:19:14.471Z,95.74
2022-11-25T08:21:42.000Z,96.41
2022-11-25T08:24:14.894Z,96.65
2022-11-25T08:26:41.623Z,97.81
2022-11-25T08:29:09.466Z,99.23
2022-11-25T08:31:38.111Z,100.00
2022-11-25T08:34:07.409Z,100.00
2022-11-25T08:36:35.305Z,100.00
2022-11-25T08:39:22.552Z,100.00
2022-11-25T08:41:53.083Z,100.00
2022-11-25T08:44:19.940Z,100.00
2022-11-25T08:46:46.824Z,99.56
2022-11-25T08:49:17.497Z,98.70
2022-11-25T08:51:44.476Z,96.09
2022-11-25T08:54:11.276Z,95.38
2022-11-25T08:56:38.080Z,95.61
2022-11-25T08:59:05.269Z,94.68
2022-11-25T09:01:32.653Z,95.23
2022-11-25T09:03:59.965Z,95.36
2022-11-25T09:06:28.879Z,95.29
2022-11-25T09:09:01.942Z,95.67
2022-11-25T09:11:29.410Z,96.41
2022-11-25T09:13:56.493Z,96.96
2022-11-25T09:16:25.774Z,98.43
2022-11-25T09:18:56.131Z,100.00
2022-11-25T09:21:25.196Z,100.00
2022-11-25T09:23:54.968Z,100.00
2022-11-25T09:26:27.004Z,100.00
2022-11-25T09:28:54.319Z,100.00
2022-11-25T09:31:22.404Z,100.00
2022-11-25T09:33:49.293Z,100.00
2022-11-25T09:36:18.055Z,100.00
2022-11-25T09:38:45.064Z,99.36
2022-11-25T09:41:42.153Z,98.61
2022-11-25T09:45:04.346Z,98.78
2022-11-25T09:47:52.852Z,98.46
2022-11-25T09:50:41.496Z,97.00
2022-11-25T09:53:17.485Z,90.76
2022-11-25T09:55:47.675Z,89.17
2022-11-25T09:58:51.111Z,93.58
2022-11-25T10:01:23.517Z,86.30
2022-11-25T10:03:58.439Z,86.64
2022-11-25T10:06:28.577Z,85.29
2022-11-25T10:09:11.439Z,85.62
2022-11-25T10:11:50.406Z,83.94
2022-11-25T10:14:49.043Z,90.72
2022-11-25T10:17:15.783Z,85.42
2022-11-25T10:20:01.762Z,84.81
2022-11-25T10:22:32.866Z,83.95
2022-11-25T10:25:03.208Z,83.77
2022-11-25T10:27:41.867Z,83.35
2022-11-25T10:30:49.031Z,71.84
2022-11-25T10:33:32.971Z,79.12
2022-11-25T10:36:06.946Z,79.55
2022-11-25T10:38:42.748Z,78.52
2022-11-25T10:41:15.987Z,78.03
2022-11-25T10:43:45.867Z,78.12
2022-11-25T10:47:11.819Z,85.04
2022-11-25T10:50:01.157Z,80.83
2022-11-25T10:52:31.187Z,73.73
2022-11-25T10:55:09.834Z,66.32
2022-11-25T10:57:36.969Z,71.26
2022-11-25T11:00:06.173Z,72.15
2022-11-25T11:02:36.002Z,72.55
2022-11-25T11:05:08.532Z,73.01
2022-11-25T11:07:39.125Z,66.52
2022-11-25T11:10:14.804Z,68.86
2022-11-25T11:13:04.085Z,67.52
2022-11-25T11:15:30.648Z,66.74
2022-11-25T11:18:00.154Z,63.63
2022-11-25T11:20:31.831Z,64.03
2022-11-25T11:23:10.441Z,59.09
2022-11-25T11:25:39.532Z,55.61
2022-11-25T11:28:33.469Z,55.74
2022-11-25T11:31:10.182Z,53.73
2022-11-25T11:33:49.005Z,52.02
2022-11-25T11:36:21.885Z,47.95
2022-11-25T11:38:57.082Z,49.15
2022-11-25T11:41:50.322Z,48.62
2022-11-25T11:44:40.587Z,48.25
2022-11-25T11:47:44.137Z,45.80
2022-11-25T11:50:30.083Z,43.61
2022-11-25T11:53:11.785Z,43.41
2022-11-25T11:55:41.589Z,43.40
2022-11-25T11:58:45.717Z,41.28
2022-11-25T12:01:22.512Z,39.90
2022-11-25T12:04:00.368Z,41.20
2022-11-25T12:06:31.893Z,41.34
2022-11-25T12:09:05.205Z,37.98
2022-11-25T12:11:38.976Z,38.62
2022-11-25T12:14:36.784Z,37.07
2022-11-25T12:17:13.816Z,36.25
2022-11-25T12:20:07.745Z,38.32
2022-11-25T12:22:59.002Z,37.38
2022-11-25T12:25:37.714Z,33.77
2022-11-25T12:28:21.403Z,34.28
2022-11-25T12:30:51.105Z,30.67
2022-11-25T12:33:45.635Z,32.70
2022-11-25T12:36:18.042Z,32.55
2022-11-25T12:39:02.349Z,31.82
2022-11-25T12:41:41.443Z,31.25
2022-11-25T12:44:20.253Z,33.72
2022-11-25T12:46:50.033Z,32.04
2022-11-25T12:49:29.090Z,29.81
2022-11-25T12:51:55.701Z,30.37
2022-11-25T12:54:37.861Z,32.74
2022-11-25T12:57:07.714Z,33.83
2022-11-25T13:00:42.958Z,32.21
2022-11-25T13:03:21.102Z,34.38
2022-11-25T13:06:24.485Z,33.22
2022-11-25T13:09:01.402Z,33.04
2022-11-25T13:11:47.610Z,33.77
2022-11-25T13:14:52.115Z,34.85
2022-11-25T13:17:22.412Z,37.51
2022-11-25T13:19:49.559Z,39.58
2022-11-25T13:22:23.700Z,40.64
2022-11-25T13:24:50.866Z,42.13
2022-11-25T13:27:40.581Z,43.21
2022-11-25T13:30:33.541Z,43.42
2022-11-25T13:33:15.481Z,44.28
2022-11-25T13:35:46.236Z,44.37
2022-11-25T13:38:31.133Z,45.14
2022-11-25T13:41:04.142Z,44.98
2022-11-25T13:43:31.035Z,44.77
2022-11-25T13:45:58.012Z,44.79
2022-11-25T13:48:29.023Z,44.64
2022-11-25T13:51:17.515Z,44.13
2022-11-25T13:53:55.387Z,44.47
2022-11-25T13:56:28.014Z,44.86
2022-11-25T13:59:16.731Z,45.12
2022-11-25T14:01:46.842Z,45.28
2022-11-25T14:04:15.677Z,44.92
2022-11-25T14:06:57.681Z,45.60
2022-11-25T14:09:55.941Z,45.89
2022-11-25T14:12:34.114Z,46.25
2022-11-25T14:15:22.393Z,46.01
2022-11-25T14:18:31.451Z,46.84
2022-11-25T14:21:20.888Z,47.11
2022-11-25T14:24:03.965Z,47.66
2022-11-25T14:26:49.224Z,47.99
2022-11-25T14:29:25.875Z,48.02
2022-11-25T14:31:57.280Z,48.02
2022-11-25T14:34:41.814Z,48.58
2022-11-25T14:37:16.547Z,48.52
2022-11-25T14:39:53.012Z,48.20
2022-11-25T14:42:22.663Z,48.23
2022-11-25T14:44:51.772Z,48.30
2022-11-25T14:47:24.130Z,47.86
2022-11-25T14:50:33.773Z,48.09
2022-11-25T14:52:47.883Z,47.57
2022-11-25T14:55:24.130Z,48.17
2022-11-25T14:57:52.339Z,47.52
2022-11-25T15:00:19.315Z,46.71
2022-11-25T15:03:18.781Z,46.29
2022-11-25T15:05:54.920Z,46.68
2022-11-25T15:08:22.374Z,46.67
2022-11-25T15:11:02.910Z,46.71
2022-11-25T15:13:34.474Z,46.27
2022-11-25T15:16:16.183Z,46.81
2022-11-25T15:18:48.999Z,46.52
2022-11-25T15:21:19.497Z,46.65
2022-11-25T15:23:46.398Z,46.89
2022-11-25T15:26:27.958Z,46.96
2022-11-25T15:28:57.336Z,47.01
2022-11-25T15:31:31.511Z,47.34
2022-11-25T15:34:02.482Z,47.25
2022-11-25T15:36:29.651Z,47.02
2022-11-25T15:39:14.516Z,47.42
2022-11-25T15:41:44.264Z,47.94
2022-11-25T15:44:18.838Z,47.94
2022-11-25T15:47:11.570Z,47.74
2022-11-25T15:49:38.583Z,48.38
2022-11-25T15:52:13.390Z,47.75
2022-11-25T15:54:44.191Z,47.92
2022-11-25T15:57:27.016Z,48.15
2022-11-25T15:59:53.735Z,48.52
2022-11-25T16:02:34.593Z,48.62
2022-11-25T16:05:13.588Z,48.68
2022-11-25T16:07:52.474Z,48.61
2022-11-25T16:10:22.137Z,48.76
2022-11-25T16:13:23.442Z,48.89
2022-11-25T16:16:24.317Z,48.62
2022-11-25T16:19:03.501Z,48.72
2022-11-25T16:21:38.983Z,48.93
2022-11-25T16:24:05.828Z,48.81
2022-11-25T16:26:35.139Z,48.91
2022-11-25T16:29:08.784Z,48.85
2022-11-25T16:31:35.546Z,48.87
2022-11-25T16:34:14.615Z,49.33
2022-11-25T16:36:42.479Z,49.41
2022-11-25T16:39:09.728Z,49.33
2022-11-25T16:41:36.875Z,49.54
2022-11-25T16:44:21.354Z,49.35
2022-11-25T16:46:48.335Z,50.03
2022-11-25T16:49:17.348Z,50.22
2022-11-25T16:51:44.667Z,50.14
2022-11-25T16:54:12.681Z,50.25
2022-11-25T16:56:42.049Z,50.38
2022-11-25T16:59:22.331Z,50.61
2022-11-25T17:01:50.201Z,50.62
2022-11-25T17:04:17.727Z,50.75
2022-11-25T17:06:54.028Z,50.92
2022-11-25T17:09:32.462Z,51.15
2022-11-25T17:11:59.412Z,52.38
2022-11-25T17:14:34.743Z,52.34
2022-11-25T17:17:05.801Z,52.62
2022-11-25T17:19:32.768Z,52.93
2022-11-25T17:21:59.618Z,53.44
2022-11-25T17:24:27.247Z,53.54
2022-11-25T17:27:05.725Z,53.75
2022-11-25T17:29:37.298Z,54.32
2022-11-25T17:32:05.264Z,54.44
2022-11-25T17:34:36.413Z,55.04
2022-11-25T17:37:25.848Z,55.32
2022-11-25T17:39:53.889Z,55.84
2022-11-25T17:42:28.549Z,55.95
2022-11-25T17:44:55.531Z,56.47
2022-11-25T17:47:23.052Z,57.38
2022-11-25T17:49:49.947Z,57.38
2022-11-25T17:52:16.861Z,57.67
2022-11-25T17:54:43.670Z,57.80
2022-11-25T17:57:17.858Z,58.08
2022-11-25T17:59:44.780Z,58.62
2022-11-25T18:02:18.792Z,58.60
2022-11-25T18:04:45.732Z,58.86
2022-11-25T18:07:12.468Z,59.24
2022-11-25T18:09:39.483Z,59.45
2022-11-25T18:12:20.135Z,59.92
2022-11-25T18:14:46.984Z,60.21
2022-11-25T18:17:16.894Z,60.42
2022-11-25T18:19:44.176Z,60.71
2022-11-25T18:22:13.641Z,61.03
2022-11-25T18:24:41.049Z,61.30
2022-11-25T18:27:13.492Z,61.33
2022-11-25T18:29:40.230Z,61.47
2022-11-25T18:32:09.912Z,61.81
2022-11-25T18:34:37.040Z,61.97
2022-11-25T18:37:04.564Z,62.01
2022-11-25T18:39:31.394Z,62.49
2022-11-25T18:42:00.050Z,62.65
2022-11-25T18:44:31.588Z,62.75
2022-11-25T18:46:58.322Z,63.04
2022-11-25T18:49:25.048Z,63.20
2022-11-25T18:51:51.886Z,63.49
2022-11-25T18:54:18.604Z,63.46
2022-11-25T18:56:50.231Z,63.37
2022-11-25T18:59:21.156Z,63.79
2022-11-25T19:01:50.032Z,63.87
2022-11-25T19:04:17.560Z,64.04
2022-11-25T19:06:44.734Z,64.21
2022-11-25T19:09:12.094Z,64.49
2022-11-25T19:11:42.758Z,64.48
2022-11-25T19:14:33.350Z,64.73
2022-11-25T19:17:07.521Z,65.02
2022-11-25T19:19:35.647Z,65.17
2022-11-25T19:22:02.694Z,65.44
2022-11-25T19:24:29.573Z,65.56
2022-11-25T19:26:57.629Z,65.46
2022-11-25T19:29:41.843Z,65.29
2022-11-25T19:32:23.608Z,65.63
2022-11-25T19:34:55.161Z,65.84
2022-11-25T19:37:22.821Z,66.05
2022-11-25T19:39:56.421Z,66.22
2022-11-25T19:42:25.520Z,66.46
2022-11-25T19:44:53.114Z,66.55
2022-11-25T19:47:21.582Z,66.62
2022-11-25T19:49:50.791Z,66.13
2022-11-25T19:52:23.283Z,66.32
2022-11-25T19:54:51.156Z,66.63
2022-11-25T19:57:20.653Z,66.77
2022-11-25T19:59:47.975Z,66.82
2022-11-25T20:02:26.269Z,66.85
2022-11-25T20:04:55.951Z,66.86
2022-11-25T20:07:23.137Z,67.08
2022-11-25T20:09:51.666Z,67.01
2022-11-25T20:12:28.655Z,67.15
2022-11-25T20:14:55.407Z,67.26
2022-11-25T20:17:34.292Z,67.42
2022-11-25T20:20:16.867Z,67.24
2022-11-25T20:23:06.205Z,67.28
2022-11-25T20:25:37.039Z,67.18
2022-11-25T20:28:03.789Z,67.20
2022-11-25T20:30:30.626Z,66.75
2022-11-25T20:32:57.368Z,66.68
2022-11-25T20:35:25.979Z,66.65
2022-11-25T20:37:58.176Z,66.45
2022-11-25T20:40:42.415Z,66.47
2022-11-25T20:43:38.912Z,66.24
2022-11-25T20:46:07.225Z,66.15
2022-11-25T20:48:37.528Z,65.86
2022-11-25T20:51:12.907Z,65.63
2022-11-25T20:53:43.658Z,65.70
2022-11-25T20:56:14.557Z,65.90
2022-11-25T20:58:41.339Z,65.97
2022-11-25T21:01:08.209Z,66.41
2022-11-25T21:03:35.116Z,66.38
2022-11-25T21:06:03.152Z,66.64
2022-11-25T21:08:31.023Z,66.91
2022-11-25T21:10:59.343Z,66.60
2022-11-25T21:13:28.873Z,66.55
2022-11-25T21:15:57.780Z,66.73
2022-11-25T21:18:25.526Z,66.64
2022-11-25T21:20:54.586Z,66.54
2022-11-25T21:23:22.780Z,66.77
2022-11-25T21:25:50.700Z,66.87
2022-11-25T21:28:20.622Z,67.01
2022-11-25T21:30:47.852Z,67.23
2022-11-25T21:33:15.937Z,67.36
2022-11-25T21:35:46.159Z,67.51
2022-11-25T21:38:18.019Z,68.57
2022-11-25T21:40:47.575Z,68.33
2022-11-25T21:43:22.390Z,68.21
2022-11-25T21:45:52.729Z,68.16
2022-11-25T21:48:24.659Z,68.05
2022-11-25T21:50:51.983Z,68.04
2022-11-25T21:53:19.074Z,68.33
2022-11-25T21:55:46.610Z,68.43
2022-11-25T21:58:19.866Z,68.43
2022-11-25T22:00:58.276Z,68.79
2022-11-25T22:03:26.890Z,69.03
2022-11-25T22:05:53.580Z,69.24
2022-11-25T22:08:20.400Z,69.50
2022-11-25T22:10:50.480Z,69.73
2022-11-25T22:13:23.947Z,70.04
2022-11-25T22:15:55.697Z,70.57
2022-11-25T22:18:33.009Z,71.36
2022-11-25T22:21:00.180Z,71.54
2022-11-25T22:23:27.844Z,71.50
2022-11-25T22:25:55.207Z,71.82
2022-11-25T22:28:24.627Z,72.66
2022-11-25T22:30:53.983Z,73.63
2022-11-25T22:33:24.678Z,74.50
2022-11-25T22:35:51.435Z,75.32
2022-11-25T22:38:18.890Z,76.42
2022-11-25T22:40:51.529Z,77.04
2022-11-25T22:43:22.055Z,77.30
2022-11-25T22:45:49.633Z,77.61
2022-11-25T22:48:24.175Z,77.40
2022-11-25T22:50:50.891Z,77.42
2022-11-25T22:53:18.990Z,76.65
2022-11-25T22:55:46.527Z,75.89
2022-11-25T22:58:14.703Z,75.11
2022-11-25T23:00:45.389Z,74.27
2022-11-25T23:03:19.039Z,74.00
2022-11-25T23:05:46.436Z,72.89
2022-11-25T23:08:15.966Z,72.75
2022-11-25T23:10:43.534Z,72.26
2022-11-25T23:13:10.844Z,72.01
2022-11-25T23:15:38.402Z,71.89
2022-11-25T23:18:13.967Z,71.67
2022-11-25T23:20:40.837Z,72.01
2022-11-25T23:23:27.242Z,71.62
2022-11-25T23:25:54.967Z,71.44
2022-11-25T23:28:22.278Z,71.54
2022-11-25T23:30:54.604Z,71.32
2022-11-25T23:33:32.640Z,71.12
2022-11-25T23:36:04.747Z,71.21
2022-11-25T23:38:38.594Z,70.79
2022-11-25T23:41:05.547Z,70.91
2022-11-25T23:43:32.239Z,71.12
2022-11-25T23:45:59.296Z,71.20
2022-11-25T23:48:30.735Z,71.39
2022-11-25T23:50:59.340Z,71.28
2022-11-25T23:53:32.248Z,70.89
2022-11-25T23:55:59.467Z,70.55
2022-11-25T23:58:26.281Z,69.96
